Time;durP1;ratioP1;P1;durP2;ratioP2;P2;SDS_P1;SDS_P2;PMS_P1;PMS_P2;Temp;Humidity;BMP_temperature;BMP_pressure;BME280_temperature;BME280_humidity;BME280_pressure;Samples;Min_cycle;Max_cycle;Signal;HPM_P1;HPM_P2
2022/09/22 00:01:01;;;;;;;8.50;5.63;;;;;;;;;;4923218;29;20102;-72
2022/09/22 00:03:31;;;;;;;11.95;5.15;;;;;;;;;;4923759;29;20516;-72
2022/09/22 00:05:59;;;;;;;9.48;5.97;;;;;;;;;;4926729;29;20048;-72
2022/09/22 00:08:25;;;;;;;9.30;5.55;;;;;;;;;;4926108;29;20040;-71
2022/09/22 00:10:58;;;;;;;9.70;5.43;;;;;;;;;;4930303;29;20031;-70
2022/09/22 00:13:24;;;;;;;6.93;5.60;;;;;;;;;;4921061;29;20024;-71
2022/09/22 00:15:50;;;;;;;6.97;5.20;;;;;;;;;;4931728;29;20081;-72
2022/09/22 00:18:16;;;;;;;12.15;5.80;;;;;;;;;;4927210;29;20048;-72
2022/09/22 00:20:42;;;;;;;6.18;5.10;;;;;;;;;;4930677;29;20036;-72
2022/09/22 00:23:08;;;;;;;7.25;4.97;;;;;;;;;;4917665;29;20027;-72
2022/09/22 00:25:38;;;;;;;6.55;4.95;;;;;;;;;;4926551;29;20086;-72
2022/09/22 00:28:04;;;;;;;8.95;6.20;;;;;;;;;;4931056;29;20028;-72
2022/09/22 00:30:30;;;;;;;7.13;5.65;;;;;;;;;;4924954;29;20494;-72
2022/09/22 00:32:56;;;;;;;7.97;5.43;;;;;;;;;;4926873;29;20040;-72
2022/09/22 00:35:22;;;;;;;6.78;5.10;;;;;;;;;;4928387;29;20036;-72
2022/09/22 00:37:48;;;;;;;6.57;5.18;;;;;;;;;;4927617;29;20119;-71
2022/09/22 00:40:16;;;;;;;6.30;5.63;;;;;;;;;;4926782;29;20035;-71
2022/09/22 00:42:42;;;;;;;7.05;4.57;;;;;;;;;;4920833;29;20036;-71
2022/09/22 00:45:11;;;;;;;7.45;4.90;;;;;;;;;;4920708;29;20040;-71
2022/09/22 00:47:40;;;;;;;5.93;4.68;;;;;;;;;;4927034;29;20496;-72
2022/09/22 00:50:09;;;;;;;5.85;4.75;;;;;;;;;;4924150;29;20031;-72
2022/09/22 00:52:45;;;;;;;9.68;4.90;;;;;;;;;;4926098;29;20402;-72
2022/09/22 00:55:13;;;;;;;7.20;4.85;;;;;;;;;;4930040;29;20020;-72
2022/09/22 00:57:40;;;;;;;6.90;4.60;;;;;;;;;;4929569;29;20024;-72
2022/09/22 01:00:08;;;;;;;5.88;4.55;;;;;;;;;;4933146;29;20040;-72
2022/09/22 01:02:34;;;;;;;7.40;5.05;;;;;;;;;;4925147;29;20052;-71
2022/09/22 01:05:00;;;;;;;7.78;4.90;;;;;;;;;;4926894;29;20074;-72
2022/09/22 01:07:28;;;;;;;6.22;4.75;;;;;;;;;;4928462;29;20036;-71
2022/09/22 01:09:55;;;;;;;7.03;4.93;;;;;;;;;;4922657;29;20028;-72
2022/09/22 01:12:22;;;;;;;9.23;4.80;;;;;;;;;;4925753;29;20490;-72
2022/09/22 01:15:03;;;;;;;6.22;4.70;;;;;;;;;;4916191;29;20028;-71
2022/09/22 01:17:33;;;;;;;9.63;5.05;;;;;;;;;;4929594;29;20083;-71
2022/09/22 01:19:59;;;;;;;7.60;4.95;;;;;;;;;;4922625;29;20028;-71
2022/09/22 01:22:25;;;;;;;9.05;5.10;;;;;;;;;;4927250;29;20087;-71
2022/09/22 01:25:00;;;;;;;5.35;4.40;;;;;;;;;;4919277;29;20127;-72
2022/09/22 01:27:46;;;;;;;5.88;4.93;;;;;;;;;;4926286;29;20134;-71
2022/09/22 01:30:13;;;;;;;7.82;5.05;;;;;;;;;;4926020;29;20102;-72
2022/09/22 01:32:44;;;;;;;7.68;5.13;;;;;;;;;;4918500;29;20032;-72
2022/09/22 01:35:14;;;;;;;7.10;5.15;;;;;;;;;;4925915;29;20078;-72
2022/09/22 01:37:43;;;;;;;8.32;4.88;;;;;;;;;;4931544;29;20027;-71
2022/09/22 01:40:12;;;;;;;6.00;4.85;;;;;;;;;;4923283;29;20443;-72
2022/09/22 01:43:08;;;;;;;7.10;4.72;;;;;;;;;;4923873;29;20088;-72
2022/09/22 01:45:35;;;;;;;5.72;4.70;;;;;;;;;;4899111;29;20152;-72
2022/09/22 01:48:05;;;;;;;8.25;5.20;;;;;;;;;;4920994;29;20032;-71
2022/09/22 01:50:42;;;;;;;5.78;4.70;;;;;;;;;;4920778;29;20055;-72
2022/09/22 01:53:13;;;;;;;6.60;4.40;;;;;;;;;;4920567;29;20375;-71
2022/09/22 01:55:41;;;;;;;7.15;4.95;;;;;;;;;;4922442;29;20398;-72
2022/09/22 01:58:16;;;;;;;9.07;4.97;;;;;;;;;;4928042;29;20027;-72
2022/09/22 02:00:46;;;;;;;6.13;4.50;;;;;;;;;;4929754;29;20034;-72
2022/09/22 02:03:28;;;;;;;10.20;5.30;;;;;;;;;;4931295;29;20134;-72
2022/09/22 02:06:01;;;;;;;7.35;5.00;;;;;;;;;;4932212;29;20035;-72
2022/09/22 02:08:33;;;;;;;7.85;4.93;;;;;;;;;;4926160;29;20031;-71
2022/09/22 02:11:02;;;;;;;7.40;4.68;;;;;;;;;;4929383;29;20032;-71
2022/09/22 02:13:28;;;;;;;9.00;5.20;;;;;;;;;;4934029;29;20078;-71
2022/09/22 02:16:00;;;;;;;7.10;4.90;;;;;;;;;;4932609;29;20185;-72
2022/09/22 02:18:29;;;;;;;6.80;5.07;;;;;;;;;;4936380;29;20035;-72
2022/09/22 02:20:55;;;;;;;7.82;5.63;;;;;;;;;;4936141;29;20041;-72
2022/09/22 02:23:21;;;;;;;8.07;4.50;;;;;;;;;;4930230;29;20127;-70
2022/09/22 02:25:48;;;;;;;8.27;4.88;;;;;;;;;;4932182;29;20040;-71
2022/09/22 02:28:15;;;;;;;6.55;4.65;;;;;;;;;;4929503;29;20058;-72
2022/09/22 02:30:42;;;;;;;6.97;4.95;;;;;;;;;;4923069;29;20426;-71
2022/09/22 02:33:09;;;;;;;7.63;4.53;;;;;;;;;;4926429;29;20064;-72
2022/09/22 02:35:37;;;;;;;6.43;4.25;;;;;;;;;;4930295;29;20810;-72
2022/09/22 02:38:09;;;;;;;8.40;4.85;;;;;;;;;;4935184;29;20187;-72
2022/09/22 02:40:41;;;;;;;8.10;4.70;;;;;;;;;;4922907;29;20039;-72
2022/09/22 02:43:13;;;;;;;5.85;4.70;;;;;;;;;;4925108;29;20038;-71
2022/09/22 02:45:43;;;;;;;11.85;4.65;;;;;;;;;;4928244;29;20047;-71
2022/09/22 02:48:11;;;;;;;6.60;4.40;;;;;;;;;;4929552;29;20489;-72
2022/09/22 02:50:38;;;;;;;6.85;4.50;;;;;;;;;;4927141;29;20040;-71
2022/09/22 02:53:09;;;;;;;6.55;4.50;;;;;;;;;;4932370;29;20489;-71
2022/09/22 02:55:35;;;;;;;6.78;4.50;;;;;;;;;;4923383;29;20031;-72
2022/09/22 02:58:01;;;;;;;6.22;4.80;;;;;;;;;;4935835;29;20032;-71
2022/09/22 03:00:27;;;;;;;9.32;4.53;;;;;;;;;;4930004;29;20027;-72
2022/09/22 03:02:53;;;;;;;6.13;4.30;;;;;;;;;;4924657;29;20046;-71
2022/09/22 03:05:20;;;;;;;6.35;4.20;;;;;;;;;;4932408;29;20047;-72
2022/09/22 03:07:46;;;;;;;6.78;4.45;;;;;;;;;;4928523;29;20074;-71
2022/09/22 03:10:12;;;;;;;6.93;4.82;;;;;;;;;;4926193;29;20039;-72
2022/09/22 03:12:42;;;;;;;8.15;4.40;;;;;;;;;;4931133;29;20047;-72
2022/09/22 03:15:12;;;;;;;8.90;4.32;;;;;;;;;;4923742;29;20036;-71
2022/09/22 03:17:40;;;;;;;6.53;4.50;;;;;;;;;;4920911;29;20449;-72
2022/09/22 03:20:09;;;;;;;7.78;5.03;;;;;;;;;;4925294;29;20037;-71
2022/09/22 03:22:35;;;;;;;7.40;4.60;;;;;;;;;;4924492;29;20115;-71
2022/09/22 03:25:02;;;;;;;6.90;4.43;;;;;;;;;;4927782;29;20098;-72
2022/09/22 03:27:28;;;;;;;7.13;4.70;;;;;;;;;;4928232;29;20024;-72
2022/09/22 03:29:54;;;;;;;8.05;4.82;;;;;;;;;;4934307;29;20028;-72
2022/09/22 03:32:21;;;;;;;7.32;4.70;;;;;;;;;;4927228;29;20028;-72
2022/09/22 03:34:47;;;;;;;11.63;4.93;;;;;;;;;;4926974;29;20171;-73
2022/09/22 03:37:13;;;;;;;6.15;4.45;;;;;;;;;;4925376;29;20035;-71
2022/09/22 03:39:39;;;;;;;7.80;4.85;;;;;;;;;;4932721;29;20097;-71
2022/09/22 03:42:05;;;;;;;7.30;4.72;;;;;;;;;;4922720;29;20506;-72
2022/09/22 03:44:32;;;;;;;9.05;5.30;;;;;;;;;;4929903;29;20114;-71
2022/09/22 03:46:59;;;;;;;6.45;4.68;;;;;;;;;;4929783;29;20478;-72
2022/09/22 03:49:25;;;;;;;7.60;4.65;;;;;;;;;;4925385;29;20031;-72
2022/09/22 03:51:51;;;;;;;7.05;5.25;;;;;;;;;;4922927;29;20392;-71
2022/09/22 03:54:17;;;;;;;5.85;4.60;;;;;;;;;;4934780;29;20565;-71
2022/09/22 03:56:43;;;;;;;7.70;4.88;;;;;;;;;;4930558;29;20036;-71
2022/09/22 03:59:10;;;;;;;6.82;4.97;;;;;;;;;;4927039;29;20083;-71
2022/09/22 04:01:36;;;;;;;8.70;5.00;;;;;;;;;;4928199;29;20035;-72
2022/09/22 04:04:03;;;;;;;6.72;4.80;;;;;;;;;;4927637;29;20490;-72
2022/09/22 04:06:29;;;;;;;6.85;4.82;;;;;;;;;;4933370;29;20050;-72
2022/09/22 04:08:55;;;;;;;7.72;5.20;;;;;;;;;;4930431;29;20024;-71
2022/09/22 04:11:23;;;;;;;7.93;5.55;;;;;;;;;;4926934;29;20119;-71
2022/09/22 04:13:49;;;;;;;9.38;4.97;;;;;;;;;;4932738;29;20085;-69
2022/09/22 04:16:15;;;;;;;7.78;5.07;;;;;;;;;;4932865;29;20106;-70
2022/09/22 04:18:42;;;;;;;7.75;5.07;;;;;;;;;;4934250;29;20063;-70
2022/09/22 04:21:08;;;;;;;9.93;5.50;;;;;;;;;;4932780;29;20046;-71
2022/09/22 04:23:35;;;;;;;8.70;4.80;;;;;;;;;;4933570;29;20027;-71
2022/09/22 04:26:01;;;;;;;8.02;5.50;;;;;;;;;;4924705;29;20087;-72
2022/09/22 04:28:27;;;;;;;7.07;5.40;;;;;;;;;;4924623;29;20516;-71
2022/09/22 04:30:54;;;;;;;6.88;5.43;;;;;;;;;;4928247;29;20486;-71
2022/09/22 04:33:20;;;;;;;8.48;5.38;;;;;;;;;;4929908;29;20028;-71
2022/09/22 04:35:48;;;;;;;7.47;5.40;;;;;;;;;;4930277;29;20032;-71
2022/09/22 04:38:14;;;;;;;8.05;5.70;;;;;;;;;;4926040;29;20051;-72
2022/09/22 04:40:40;;;;;;;10.23;6.05;;;;;;;;;;4933481;29;20036;-71
2022/09/22 04:43:06;;;;;;;11.05;7.22;;;;;;;;;;4926015;29;20393;-71
2022/09/22 04:45:33;;;;;;;9.93;7.93;;;;;;;;;;4923350;29;20044;-71
2022/09/22 04:47:59;;;;;;;8.15;6.57;;;;;;;;;;4911032;29;20126;-71
2022/09/22 04:50:25;;;;;;;11.52;6.50;;;;;;;;;;4923406;29;20482;-72
2022/09/22 04:52:52;;;;;;;17.00;7.55;;;;;;;;;;4922270;29;20032;-72
2022/09/22 04:55:19;;;;;;;15.05;8.60;;;;;;;;;;4921725;29;20040;-72
2022/09/22 04:57:53;;;;;;;14.60;8.77;;;;;;;;;;4921879;29;20036;-70
2022/09/22 05:00:20;;;;;;;13.25;8.40;;;;;;;;;;4930678;29;20107;-72
2022/09/22 05:02:46;;;;;;;13.70;7.93;;;;;;;;;;4927822;29;20485;-72
2022/09/22 05:05:12;;;;;;;11.15;7.07;;;;;;;;;;4915654;29;20588;-74
2022/09/22 05:07:45;;;;;;;9.75;6.50;;;;;;;;;;4927552;29;20115;-75
2022/09/22 05:10:13;;;;;;;9.90;5.82;;;;;;;;;;4923290;29;20056;-74
2022/09/22 05:12:43;;;;;;;8.20;5.70;;;;;;;;;;4925504;29;20032;-73
2022/09/22 05:15:09;;;;;;;7.40;5.72;;;;;;;;;;4926781;29;20078;-72
2022/09/22 05:17:36;;;;;;;10.77;5.78;;;;;;;;;;4921987;29;20102;-76
2022/09/22 05:20:05;;;;;;;10.00;5.47;;;;;;;;;;4917018;29;20479;-73
2022/09/22 05:22:33;;;;;;;9.15;5.22;;;;;;;;;;4925373;29;20096;-72
2022/09/22 05:24:59;;;;;;;9.00;5.35;;;;;;;;;;4929488;29;20040;-71
2022/09/22 05:27:25;;;;;;;8.88;5.95;;;;;;;;;;4931733;29;20111;-72
2022/09/22 05:29:51;;;;;;;7.55;5.50;;;;;;;;;;4934486;29;20063;-72
2022/09/22 05:32:17;;;;;;;7.45;5.60;;;;;;;;;;4935757;29;20481;-76
2022/09/22 05:34:43;;;;;;;10.70;6.35;;;;;;;;;;4926987;29;20091;-75
2022/09/22 05:37:09;;;;;;;8.95;5.80;;;;;;;;;;4910079;29;20028;-73
2022/09/22 05:39:35;;;;;;;11.23;5.30;;;;;;;;;;4926319;29;20088;-75
2022/09/22 05:42:01;;;;;;;8.18;4.97;;;;;;;;;;4934083;29;20066;-78
2022/09/22 05:44:27;;;;;;;6.25;4.40;;;;;;;;;;4935625;29;20090;-76
2022/09/22 05:46:54;;;;;;;7.63;4.72;;;;;;;;;;4939581;29;20040;-72
2022/09/22 05:49:20;;;;;;;7.43;5.05;;;;;;;;;;4934099;29;20028;-75
2022/09/22 05:51:46;;;;;;;9.13;5.72;;;;;;;;;;4933156;29;20067;-75
2022/09/22 05:54:12;;;;;;;19.05;6.05;;;;;;;;;;4932340;29;20036;-75
2022/09/22 05:56:38;;;;;;;7.35;5.20;;;;;;;;;;4933741;29;20034;-75
2022/09/22 05:59:05;;;;;;;5.22;4.70;;;;;;;;;;4939315;29;20026;-78
2022/09/22 06:01:31;;;;;;;11.57;4.70;;;;;;;;;;4937544;29;20032;-76
2022/09/22 06:03:57;;;;;;;6.97;4.75;;;;;;;;;;4915306;29;20027;-75
2022/09/22 06:06:23;;;;;;;8.23;4.72;;;;;;;;;;4929960;29;20060;-76
2022/09/22 06:08:53;;;;;;;7.57;4.70;;;;;;;;;;4913339;29;20063;-78
2022/09/22 06:11:19;;;;;;;7.00;5.18;;;;;;;;;;4932854;29;20474;-78
2022/09/22 06:13:49;;;;;;;7.70;5.10;;;;;;;;;;4932986;29;20068;-77
2022/09/22 06:16:15;;;;;;;7.05;5.00;;;;;;;;;;4938827;29;20027;-75
2022/09/22 06:18:46;;;;;;;9.70;4.50;;;;;;;;;;4940189;29;20020;-76
2022/09/22 06:21:12;;;;;;;8.35;5.38;;;;;;;;;;4911174;29;20187;-75
2022/09/22 06:23:39;;;;;;;8.48;5.35;;;;;;;;;;4933802;29;20485;-76
2022/09/22 06:26:05;;;;;;;8.05;5.28;;;;;;;;;;4929972;29;20111;-77
2022/09/22 06:28:31;;;;;;;9.50;5.40;;;;;;;;;;4928324;29;20070;-73
2022/09/22 06:30:59;;;;;;;13.57;6.03;;;;;;;;;;4924782;29;20032;-73
2022/09/22 06:33:28;;;;;;;9.00;4.75;;;;;;;;;;4926421;29;20054;-74
2022/09/22 06:35:56;;;;;;;8.77;5.07;;;;;;;;;;4925214;29;20024;-77
2022/09/22 06:38:23;;;;;;;7.47;5.22;;;;;;;;;;4928689;29;20040;-77
2022/09/22 06:40:52;;;;;;;9.55;5.30;;;;;;;;;;4929493;29;20032;-76
2022/09/22 06:43:22;;;;;;;11.25;5.15;;;;;;;;;;4918114;29;20024;-76
2022/09/22 06:45:52;;;;;;;7.55;5.22;;;;;;;;;;4932885;29;20541;-75
2022/09/22 06:48:22;;;;;;;7.70;5.65;;;;;;;;;;4931584;29;20042;-76
2022/09/22 06:50:50;;;;;;;10.80;5.55;;;;;;;;;;4933410;29;20038;-75
2022/09/22 06:53:17;;;;;;;8.35;5.63;;;;;;;;;;4935261;29;20500;-75
2022/09/22 06:55:44;;;;;;;10.55;5.25;;;;;;;;;;4920394;29;20035;-75
2022/09/22 06:58:10;;;;;;;11.00;6.85;;;;;;;;;;4935208;29;20040;-75
2022/09/22 07:00:37;;;;;;;8.90;6.80;;;;;;;;;;4934120;29;20036;-74
2022/09/22 07:03:12;;;;;;;8.57;5.82;;;;;;;;;;4934844;29;20114;-76
2022/09/22 07:05:38;;;;;;;9.80;6.25;;;;;;;;;;4931966;29;20072;-75
2022/09/22 07:08:04;;;;;;;10.25;5.50;;;;;;;;;;4926975;29;20040;-74
2022/09/22 07:10:36;;;;;;;6.38;4.57;;;;;;;;;;4933937;29;20043;-75
2022/09/22 07:13:04;;;;;;;11.45;5.40;;;;;;;;;;4936018;29;20024;-74
2022/09/22 07:15:30;;;;;;;7.20;5.63;;;;;;;;;;4924799;29;20032;-74
2022/09/22 07:17:56;;;;;;;10.70;7.00;;;;;;;;;;4926509;29;20024;-76
2022/09/22 07:20:22;;;;;;;8.75;7.18;;;;;;;;;;4925349;29;20064;-77
2022/09/22 07:22:49;;;;;;;7.82;5.57;;;;;;;;;;4938477;29;20031;-75
2022/09/22 07:25:15;;;;;;;11.30;6.15;;;;;;;;;;4933921;29;20043;-75
2022/09/22 07:27:42;;;;;;;6.10;5.35;;;;;;;;;;4927318;29;20549;-75
2022/09/22 07:30:09;;;;;;;7.25;5.70;;;;;;;;;;4926607;29;20019;-78
2022/09/22 07:32:35;;;;;;;6.70;5.82;;;;;;;;;;4929566;29;20043;-79
2022/09/22 07:35:01;;;;;;;7.95;5.97;;;;;;;;;;4927748;29;20029;-79
2022/09/22 07:37:29;;;;;;;8.40;7.47;;;;;;;;;;4928650;29;20086;-76
2022/09/22 07:39:55;;;;;;;7.65;5.90;;;;;;;;;;4930852;29;20459;-75
2022/09/22 07:42:21;;;;;;;9.63;8.02;;;;;;;;;;4928406;29;20386;-78
2022/09/22 07:50:17;;;;;;;5.10;4.60;;;;;;;;;;4929481;29;20042;-74
2022/09/22 07:52:49;;;;;;;7.30;5.18;;;;;;;;;;4928534;29;20043;-83
2022/09/22 07:55:15;;;;;;;7.35;4.53;;;;;;;;;;4922171;29;20143;-84
2022/09/22 07:57:41;;;;;;;6.70;4.55;;;;;;;;;;4926280;29;20478;-75
2022/09/22 08:00:08;;;;;;;6.15;4.28;;;;;;;;;;4930236;29;20540;-74
2022/09/22 08:02:34;;;;;;;7.07;4.40;;;;;;;;;;4918918;29;20023;-75
2022/09/22 08:05:00;;;;;;;10.75;4.60;;;;;;;;;;4925536;29;20039;-75
2022/09/22 08:07:30;;;;;;;6.65;4.32;;;;;;;;;;4926250;29;20031;-79
2022/09/22 08:09:56;;;;;;;7.10;4.70;;;;;;;;;;4937743;29;20028;-74
2022/09/22 08:12:23;;;;;;;8.10;5.07;;;;;;;;;;4930254;29;20024;-73
2022/09/22 08:14:49;;;;;;;6.03;5.22;;;;;;;;;;4942999;29;20027;-73
2022/09/22 08:17:15;;;;;;;7.93;5.70;;;;;;;;;;4928605;29;20027;-74
2022/09/22 08:19:41;;;;;;;7.57;5.28;;;;;;;;;;4931968;29;20089;-72
2022/09/22 08:22:10;;;;;;;8.75;5.75;;;;;;;;;;4945296;29;20363;-72
2022/09/22 08:24:36;;;;;;;9.38;5.68;;;;;;;;;;4942505;29;20059;-73
2022/09/22 08:27:03;;;;;;;16.38;5.43;;;;;;;;;;4934125;29;20406;-76
2022/09/22 08:29:30;;;;;;;6.47;5.47;;;;;;;;;;4929026;29;20047;-75
2022/09/22 08:31:56;;;;;;;9.00;5.82;;;;;;;;;;4932453;29;20362;-71
2022/09/22 08:34:22;;;;;;;8.07;5.45;;;;;;;;;;4935788;29;20072;-73
2022/09/22 08:36:48;;;;;;;8.52;6.18;;;;;;;;;;4937090;29;20031;-78
2022/09/22 08:39:15;;;;;;;12.98;7.80;;;;;;;;;;4926657;29;20043;-77
2022/09/22 08:41:47;;;;;;;21.80;12.88;;;;;;;;;;4934155;29;20023;-78
2022/09/22 08:44:14;;;;;;;7.63;6.05;;;;;;;;;;4926137;29;20392;-74
2022/09/22 08:46:44;;;;;;;7.57;5.85;;;;;;;;;;4929199;29;20048;-74
2022/09/22 08:52:27;;;;;;;9.77;5.70;;;;;;;;;;4943079;29;20067;-76
2022/09/22 08:54:58;;;;;;;7.55;5.55;;;;;;;;;;4944446;29;20051;-74
2022/09/22 08:57:30;;;;;;;7.20;5.45;;;;;;;;;;4946955;29;20416;-74
2022/09/22 09:00:07;;;;;;;6.15;5.32;;;;;;;;;;4934817;29;20035;-76
2022/09/22 09:02:33;;;;;;;6.78;5.30;;;;;;;;;;4943261;29;20087;-76
2022/09/22 09:05:03;;;;;;;9.77;5.78;;;;;;;;;;4941449;28;20055;-75
2022/09/22 09:07:35;;;;;;;9.50;5.25;;;;;;;;;;4925457;29;20031;-75
2022/09/22 09:10:16;;;;;;;7.50;5.35;;;;;;;;;;4934100;29;20039;-74
2022/09/22 09:12:42;;;;;;;7.43;5.50;;;;;;;;;;4920327;29;20506;-74
2022/09/22 09:15:08;;;;;;;10.10;5.80;;;;;;;;;;4926237;29;20025;-74
2022/09/22 09:17:37;;;;;;;8.27;6.28;;;;;;;;;;4928163;29;20032;-73
2022/09/22 09:20:03;;;;;;;9.02;6.03;;;;;;;;;;4934846;29;20023;-73
2022/09/22 09:22:34;;;;;;;12.70;6.30;;;;;;;;;;4931786;29;20031;-77
2022/09/22 09:25:08;;;;;;;14.52;8.13;;;;;;;;;;4934966;29;20012;-76
2022/09/22 09:27:39;;;;;;;8.88;5.70;;;;;;;;;;4929646;29;20046;-75
2022/09/22 09:30:16;;;;;;;8.70;6.07;;;;;;;;;;4931558;29;20481;-72
2022/09/22 09:32:48;;;;;;;7.78;5.70;;;;;;;;;;4927817;29;20329;-73
2022/09/22 09:35:21;;;;;;;8.27;6.07;;;;;;;;;;4917494;29;20043;-73
2022/09/22 09:37:48;;;;;;;8.27;5.72;;;;;;;;;;4925689;29;20043;-73
2022/09/22 09:40:16;;;;;;;9.90;5.85;;;;;;;;;;4934561;29;20039;-76
2022/09/22 09:42:44;;;;;;;13.25;7.00;;;;;;;;;;4926633;29;20115;-76
2022/09/22 09:45:15;;;;;;;8.70;5.03;;;;;;;;;;4928087;29;20031;-75
2022/09/22 09:47:46;;;;;;;10.85;4.95;;;;;;;;;;4930072;29;20036;-77
2022/09/22 09:50:12;;;;;;;11.52;6.15;;;;;;;;;;4925193;29;20016;-75
2022/09/22 09:52:38;;;;;;;9.55;5.88;;;;;;;;;;4929557;29;20027;-76
2022/09/22 09:55:24;;;;;;;9.65;6.18;;;;;;;;;;4927354;29;20036;-75
2022/09/22 09:58:04;;;;;;;7.60;5.78;;;;;;;;;;4932018;29;20032;-75
2022/09/22 10:00:30;;;;;;;8.30;6.13;;;;;;;;;;4928329;29;20042;-75
2022/09/22 10:03:04;;;;;;;10.27;5.95;;;;;;;;;;4933079;29;20437;-75
2022/09/22 10:05:32;;;;;;;8.25;5.95;;;;;;;;;;4934021;29;20464;-75
2022/09/22 10:07:58;;;;;;;10.93;5.70;;;;;;;;;;4927406;29;20028;-78
2022/09/22 10:10:33;;;;;;;9.02;6.40;;;;;;;;;;4933257;29;20032;-76
2022/09/22 10:13:05;;;;;;;8.55;6.13;;;;;;;;;;4914914;29;20415;-76
2022/09/22 10:15:35;;;;;;;14.15;5.57;;;;;;;;;;4923957;29;20090;-76
2022/09/22 10:18:02;;;;;;;26.73;15.65;;;;;;;;;;4919528;29;20414;-77
2022/09/22 10:20:30;;;;;;;12.40;7.70;;;;;;;;;;4935858;29;20114;-75
2022/09/22 10:22:56;;;;;;;11.32;7.20;;;;;;;;;;4912926;29;20156;-77
2022/09/22 10:25:32;;;;;;;12.05;6.72;;;;;;;;;;4936617;29;20098;-76
2022/09/22 10:27:58;;;;;;;7.45;5.75;;;;;;;;;;4940183;29;20059;-76
2022/09/22 10:30:26;;;;;;;7.07;5.05;;;;;;;;;;4932099;29;20079;-76
2022/09/22 10:33:06;;;;;;;11.27;6.03;;;;;;;;;;4929742;29;20024;-76
2022/09/22 10:35:33;;;;;;;8.02;5.80;;;;;;;;;;4984753;23;20055;-77
2022/09/22 10:38:19;;;;;;;8.73;5.63;;;;;;;;;;4949316;28;20486;-75
2022/09/22 10:40:51;;;;;;;12.00;5.80;;;;;;;;;;4953839;28;20471;-76
2022/09/22 10:43:39;;;;;;;12.95;6.85;;;;;;;;;;4973085;28;20524;-76
2022/09/22 10:46:27;;;;;;;8.77;5.80;;;;;;;;;;4970794;28;20034;-75
2022/09/22 10:49:23;;;;;;;10.23;6.30;;;;;;;;;;4968814;28;20106;-75
2022/09/22 10:52:02;;;;;;;8.73;5.80;;;;;;;;;;4969915;28;20027;-76
2022/09/22 10:54:47;;;;;;;7.45;5.88;;;;;;;;;;4969312;28;20042;-77
2022/09/22 10:57:28;;;;;;;8.05;5.55;;;;;;;;;;4987651;28;20019;-77
2022/09/22 10:59:54;;;;;;;7.85;5.25;;;;;;;;;;4987205;28;20042;-76
2022/09/22 11:02:37;;;;;;;7.18;5.40;;;;;;;;;;4976375;28;20027;-77
2022/09/22 11:05:03;;;;;;;12.10;6.43;;;;;;;;;;4968382;28;20086;-76
2022/09/22 11:13:49;;;;;;;16.45;8.18;;;;;;;;;;4983548;28;20512;-77
2022/09/22 11:16:26;;;;;;;10.05;5.90;;;;;;;;;;4959581;29;20035;-77
2022/09/22 11:18:55;;;;;;;8.98;6.05;;;;;;;;;;4977198;28;20031;-76
2022/09/22 11:21:47;;;;;;;10.30;5.53;;;;;;;;;;4970776;28;20035;-77
2022/09/22 11:24:49;;;;;;;9.32;5.47;;;;;;;;;;4983492;28;20074;-78
2022/09/22 11:27:35;;;;;;;9.48;5.78;;;;;;;;;;4968760;28;20031;-75
2022/09/22 11:30:02;;;;;;;7.45;5.50;;;;;;;;;;4972963;28;20110;-76
2022/09/22 11:32:41;;;;;;;12.27;5.85;;;;;;;;;;4971138;28;20035;-78
2022/09/22 11:35:24;;;;;;;6.95;5.20;;;;;;;;;;4973863;28;20396;-75
2022/09/22 11:38:09;;;;;;;6.95;4.50;;;;;;;;;;4978114;28;20404;-77
2022/09/22 11:40:57;;;;;;;5.95;4.80;;;;;;;;;;4981100;28;20043;-75
2022/09/22 11:43:49;;;;;;;5.18;4.22;;;;;;;;;;4978145;28;20736;-74
2022/09/22 11:46:22;;;;;;;9.65;5.03;;;;;;;;;;4912606;29;20036;-76
2022/09/22 11:49:07;;;;;;;10.32;5.60;;;;;;;;;;4914622;29;20020;-75
2022/09/22 11:51:41;;;;;;;15.13;5.97;;;;;;;;;;4913524;29;20029;-76
2022/09/22 11:54:07;;;;;;;16.15;10.85;;;;;;;;;;4916724;29;20032;-76
2022/09/22 11:56:55;;;;;;;7.95;4.93;;;;;;;;;;4889473;29;20036;-76
2022/09/22 11:59:39;;;;;;;7.32;4.95;;;;;;;;;;4901660;29;20045;-75
2022/09/22 12:02:18;;;;;;;6.82;5.40;;;;;;;;;;4904206;29;20088;-74
2022/09/22 12:04:56;;;;;;;10.70;7.50;;;;;;;;;;4902064;29;20044;-75
2022/09/22 12:10:37;;;;;;;8.13;5.00;;;;;;;;;;5139763;23;20066;-78
2022/09/22 12:13:07;;;;;;;6.78;4.00;;;;;;;;;;4961684;28;20074;-76
2022/09/22 12:15:33;;;;;;;5.47;4.25;;;;;;;;;;4952983;29;20110;-78
2022/09/22 12:18:17;;;;;;;6.25;4.30;;;;;;;;;;4947817;29;20024;-76
2022/09/22 12:21:24;;;;;;;5.15;4.13;;;;;;;;;;4960265;28;20031;-79
2022/09/22 12:23:51;;;;;;;8.13;5.05;;;;;;;;;;4967865;28;20433;-78
2022/09/22 12:26:34;;;;;;;6.55;4.70;;;;;;;;;;4957244;29;20051;-79
2022/09/22 12:29:04;;;;;;;12.40;5.47;;;;;;;;;;4973211;28;20160;-78
2022/09/22 12:31:42;;;;;;;11.35;3.75;;;;;;;;;;4967427;29;20034;-79
2022/09/22 12:34:22;;;;;;;22.58;14.90;;;;;;;;;;4968876;29;20043;-78
2022/09/22 12:37:11;;;;;;;6.65;4.40;;;;;;;;;;4966353;28;20086;-79
2022/09/22 12:39:39;;;;;;;6.35;3.92;;;;;;;;;;4969529;28;20047;-75
2022/09/22 12:42:07;;;;;;;5.47;3.78;;;;;;;;;;4956361;28;20078;-76
2022/09/22 12:44:39;;;;;;;4.63;3.45;;;;;;;;;;4954245;28;20466;-76
2022/09/22 12:47:07;;;;;;;7.10;3.80;;;;;;;;;;4966730;28;20046;-78
2022/09/22 12:49:46;;;;;;;7.25;3.67;;;;;;;;;;4961221;29;20023;-79
2022/09/22 12:52:32;;;;;;;5.93;4.28;;;;;;;;;;4948239;29;20070;-80
2022/09/22 12:55:17;;;;;;;13.18;5.35;;;;;;;;;;4958946;29;20039;-79
2022/09/22 12:57:46;;;;;;;17.23;8.13;;;;;;;;;;4967876;29;20023;-80
2022/09/22 13:00:36;;;;;;;12.00;6.00;;;;;;;;;;4968436;29;20047;-79
2022/09/22 13:03:32;;;;;;;12.07;6.00;;;;;;;;;;4895858;29;20045;-80
2022/09/22 13:06:29;;;;;;;12.80;6.22;;;;;;;;;;4844180;29;20037;-80
2022/09/22 13:09:20;;;;;;;12.82;6.82;;;;;;;;;;4839609;29;20027;-78
2022/09/22 13:12:07;;;;;;;8.95;6.15;;;;;;;;;;4834778;29;20060;-80
2022/09/22 13:15:10;;;;;;;;;;;;;;;;;;;;;
2022/09/22 13:17:37;;;;;;;6.65;4.30;;;;;;;;;;5564747;23;20051;-79
2022/09/22 13:20:14;;;;;;;7.88;4.57;;;;;;;;;;4938640;29;20027;-75
2022/09/22 13:22:41;;;;;;;6.57;4.90;;;;;;;;;;4954386;28;20062;-76
2022/09/22 13:25:19;;;;;;;7.90;5.22;;;;;;;;;;4953254;28;20050;-75
2022/09/22 13:27:49;;;;;;;8.57;6.10;;;;;;;;;;4950792;28;20072;-75
2022/09/22 13:30:16;;;;;;;8.98;5.75;;;;;;;;;;4956199;28;20042;-74
2022/09/22 13:32:49;;;;;;;9.93;6.05;;;;;;;;;;4953752;29;20031;-77
2022/09/22 13:35:29;;;;;;;8.52;5.90;;;;;;;;;;4963959;28;20059;-74
2022/09/22 13:38:02;;;;;;;10.43;6.28;;;;;;;;;;4961029;28;20031;-77
2022/09/22 13:40:28;;;;;;;10.00;6.75;;;;;;;;;;4979669;28;20015;-76
2022/09/22 13:43:00;;;;;;;12.05;6.55;;;;;;;;;;4978634;28;20023;-77
2022/09/22 13:45:26;;;;;;;8.80;6.47;;;;;;;;;;4981204;28;20046;-77
2022/09/22 13:47:55;;;;;;;13.82;7.32;;;;;;;;;;4970071;28;20081;-73
2022/09/22 13:50:22;;;;;;;10.85;8.27;;;;;;;;;;4972834;28;20027;-77
2022/09/22 13:52:52;;;;;;;1999.90;391.33;;;;;;;;;;4980489;28;20147;-76
2022/09/22 13:55:18;;;;;;;19.08;10.68;;;;;;;;;;4969802;28;20015;-74
2022/09/22 13:57:55;;;;;;;15.85;7.90;;;;;;;;;;4984070;28;20137;-78
2022/09/22 14:00:23;;;;;;;12.43;7.07;;;;;;;;;;4984916;28;20076;-78
2022/09/22 14:02:50;;;;;;;9.95;6.65;;;;;;;;;;4985678;28;20516;-72
2022/09/22 14:05:19;;;;;;;9.38;5.88;;;;;;;;;;4961300;28;20038;-76
2022/09/22 14:07:45;;;;;;;8.20;5.75;;;;;;;;;;4975122;28;20058;-76
2022/09/22 14:10:19;;;;;;;8.38;4.80;;;;;;;;;;4954577;29;20030;-77
2022/09/22 14:12:47;;;;;;;7.22;5.15;;;;;;;;;;4956867;29;20035;-72
2022/09/22 14:15:32;;;;;;;7.38;5.72;;;;;;;;;;4946959;29;20047;-74
2022/09/22 14:18:12;;;;;;;8.75;5.82;;;;;;;;;;4961896;29;20136;-77
2022/09/22 14:20:39;;;;;;;13.88;10.18;;;;;;;;;;4952471;29;20058;-75
2022/09/22 14:23:11;;;;;;;8.05;6.20;;;;;;;;;;4955339;28;20031;-74
2022/09/22 15:56:51;;;;;;;9.02;5.70;;;;;;;;;;5370826;23;20035;-76
2022/09/22 15:59:25;;;;;;;11.73;6.00;;;;;;;;;;4904908;29;20524;-77
2022/09/22 16:01:58;;;;;;;11.32;7.60;;;;;;;;;;4898413;29;20497;-79
2022/09/22 16:04:31;;;;;;;11.77;7.68;;;;;;;;;;4921173;29;20505;-76
2022/09/22 16:07:20;;;;;;;8.60;6.90;;;;;;;;;;4927582;29;20044;-77
2022/09/22 16:09:50;;;;;;;10.18;6.28;;;;;;;;;;4911396;28;20076;-80
2022/09/22 16:12:20;;;;;;;9.68;5.57;;;;;;;;;;4932896;29;20040;-80
2022/09/22 16:14:46;;;;;;;6.45;4.85;;;;;;;;;;4934475;29;20037;-77
2022/09/22 16:17:13;;;;;;;7.15;4.40;;;;;;;;;;4922042;29;20016;-78
2022/09/22 16:29:45;;;;;;;7.93;3.67;;;;;;;;;;4975024;29;20042;-76
2022/09/22 16:32:15;;;;;;;10.02;4.10;;;;;;;;;;4940095;29;20265;-76
2022/09/22 16:34:44;;;;;;;4.32;3.20;;;;;;;;;;4944433;29;20039;-77
2022/09/22 16:37:29;;;;;;;5.82;3.10;;;;;;;;;;4946188;29;20111;-77
2022/09/22 16:40:07;;;;;;;3.67;3.10;;;;;;;;;;4963238;29;20027;-77
2022/09/22 16:42:44;;;;;;;6.43;4.10;;;;;;;;;;4944106;29;20175;-77
2022/09/22 16:45:14;;;;;;;11.35;5.72;;;;;;;;;;4944116;29;20075;-78
2022/09/22 16:47:43;;;;;;;5.28;4.47;;;;;;;;;;4945420;29;20055;-77
2022/09/22 16:50:35;;;;;;;6.53;4.43;;;;;;;;;;4923202;29;20067;-78
2022/09/22 16:53:13;;;;;;;5.32;4.00;;;;;;;;;;4917074;29;20032;-79
2022/09/22 16:55:49;;;;;;;5.63;4.15;;;;;;;;;;4894545;29;20051;-75
2022/09/22 16:58:25;;;;;;;6.53;4.65;;;;;;;;;;4917693;29;20052;-77
2022/09/22 17:00:54;;;;;;;8.15;5.40;;;;;;;;;;4909173;29;20136;-77